Tiempo atmosférico en la estación meteorológica de Alfaro, La Rioja (285 m.)



Fecha
DESCASC
Temp. máxima en grados centígrados (hora)
DESCASC
Temp. mínima en grados centígrados (hora)
DESCASC
Temp. media en grados centígrados
DESCASC
Racha de viento máxima en m/sg (hora)
DESCASC
Velocidad máxima media en intervalos de 10 minutos(hora)
DESCASC
Precipitaciones diarias en mm
DESCASC
Precipitaciones de 00:00 a 06:00 en mm
DESCASC
Precipitaciones de 06:00 a 12:00 en mm
DESCASC
Precipitaciones de 12:00 a 18:00 en mm
DESCASC
Precipitaciones de 18:00 a 24:00 en mm
DESCASC
14-01-2020 -- (--) -- (--) -- -- (--) -- (--) -- -- -- -- 0
13-01-2020 -- (--) -- (--) -- -- (--) -- (--) -- -- -- -- --
12-01-2020 -- (--) -- (--) -- -- (--) -- (--) -- -- -- -- --
26-12-2019 14.3 (13:50) 1.7 (00:00) 8 7.78 (11:40) 5.28 (14:00) 0 0 0 0 0
23-01-2020 10.7 (15:00) 4.4 (00:00) 7.5 9.17 (17:20) 6.11 (16:40) 0 0 0 0 0
21-01-2020 3.9 (17:30) 1.4 (00:00) 2.7 11.39 (05:50) 6.67 (05:50) 7.2 0 1.6 5.6 0
20-01-2020 5 (15:00) 1 (00:00) 3 14.44 (01:10) 9.17 (02:10) 0 0 0 0 0
18-01-2020 12.9 (14:40) -2.1 (-00:0) 5.4 13.33 (21:40) 8.33 (21:50) 4.4 0 0 0 4.4
17-01-2020 13.4 (14:40) -0.6 (-00:0) 6.4 9.44 (15:20) 6.11 (15:20) 0 0 0 0 0
16-01-2020 13.4 (16:20) -0.9 (-00:0) 6.2 11.11 (13:30) 8.06 (13:20) 0 0 0 0 0
15-01-2020 11.1 (16:20) -1.5 (-00:0) 4.8 10.28 (03:10) 6.67 (12:50) 0 0 0 0 0
11-01-2020 12.1 (16:20) -2.5 (-00:0) 4.8 7.78 (12:50) 5.28 (12:50) 0 0 0 0 0
10-01-2020 11.2 (15:10) 3.8 (00:00) 7.5 11.39 (14:00) 7.22 (12:00) 0 0 0 0 0
08-01-2020 4.5 (15:40) -1.5 (-00:0) 1.5 4.17 (13:50) 2.5 (13:50) 0 0 0 0 0
07-01-2020 7.1 (17:20) -4.2 (-00:0) 1.5 4.44 (04:00) 3.33 (04:00) 0 0 0 0 0
06-01-2020 2.2 (15:30) -2.9 (-00:0) -0.4 4.72 (22:40) 3.61 (22:40) 0.2 0 0.2 0 0
05-01-2020 14.9 (15:30) -2.1 (-00:0) 6.4 5.28 (11:30) 3.33 (13:00) 0 0 0 0 0
04-01-2020 13.6 (15:20) 3.4 (00:00) 8.5 11.94 (12:10) 7.78 (12:10) 0 0 0 0 0
03-01-2020 10.5 (16:10) -0.8 (-00:0) 4.8 6.67 (16:40) 4.44 (16:20) 0 0 0 0 0
01-01-2020 1 (15:30) -0.6 (-00:0) 0.2 3.61 (07:00) 2.22 (10:40) 0 0 0 0 0
31-12-2019 2.3 (00:00) 0.6 (00:00) 1.4 3.61 (20:20) 1.94 (08:00) 0 0 0 0 0
29-12-2019 0.9 (16:00) -1.3 (-00:0) -0.2 2.5 (23:59) 1.94 (03:10) 0 0 0 0 0
28-12-2019 10.4 (15:50) -3.4 (-00:0) 3.5 3.61 (14:10) 2.5 (06:00) 0 0 0 0 0
27-12-2019 12 (15:50) -3.1 (-00:0) 4.5 5.56 (22:40) 3.61 (22:40) 0.2 0 0.2 0 0
09-01-2020 3.8 (23:50) 2.1 (00:00) 2.9 4.72 (12:50) 2.78 (12:30) 0.2 0.2 0 0 0
02-01-2020 0.4 (14:20) -0.6 (-00:0) -0.1 2.78 (22:10) 1.67 (20:50) 0.2 0.2 0 0 0
30-12-2019 -- (--) -- (--) -- -- (--) -- (--) -- 0.2 0 0 --
25-12-2019 15.4 (16:10) -0.2 (00:00) 7.6 2.5 (01:20) 1.94 (19:40) 0.2 0.2 0 0 0
22-01-2020 9.7 (15:20) 2.8 (00:00) 6.2 7.22 (03:30) 4.17 (03:30) 4.6 3.8 0 0 0.8
19-01-2020 8.5 (13:40) 2.8 (00:00) 5.6 19.17 (11:50) 11.39 (11:50) 4.8 4.6 0.2 0 0

Gráficas

Temp. máximas Temp. mínimas Temp. medias Precipitaciones Rachas de viento máximas Velocidades máximas media en intervalos de 10 minutos

Datos horarios

Fecha y hora oficial Temperatura (ºC) Velocidad del viento (km/h) Dirección del viento Racha (km/h) Dirección de racha Precipitación (mm) Presión (hPa) Tendencia (hPa) Humedad (%)
2020-01-23 23:00:00 6.9 13 Sudeste 19 Sudeste 0 -- -- 91
2020-01-23 22:00:00 7.1 10 Sudeste 15 Sudeste 0 -- -- 90
2020-01-23 21:00:00 7 5 Sudeste 15 Este 0 -- -- 92
2020-01-23 20:00:00 7.3 11 Sudeste 19 Este 0 -- -- 91
2020-01-23 19:00:00 7.5 12 Este 27 Este 0 -- -- 89
2020-01-23 18:00:00 8.3 11 Este 33 Sudeste 0 -- -- 88
2020-01-23 17:00:00 9.2 18 Sudeste 32 Sudeste 0 -- -- 83
2020-01-23 16:00:00 9.9 22 Sudeste 31 Sudeste 0 -- -- 80
2020-01-23 15:00:00 10.7 17 Sudeste 23 Sudeste 0 -- -- 80
2020-01-23 14:00:00 8.3 0 Calma 8 Sudoeste 0 -- -- 88
2020-01-23 13:00:00 7.4 2 Oeste 11 Norte 0 -- -- 94
2020-01-23 12:00:00 6.3 3 Norte 8 Norte 0 -- -- 100
2020-01-23 11:00:00 5.8 3 Noroeste 5 Oeste 0 -- -- 100
2020-01-23 10:00:00 4.6 0 Calma -- -- 0 -- -- 100
2020-01-23 09:00:00 4.7 0 Calma 4 Sur 0 -- -- 100
2020-01-23 08:00:00 4.9 3 Sudoeste 8 Oeste 0 -- -- 100
2020-01-23 07:00:00 5.2 2 Nordeste 7 Nordeste 0 -- -- 100
2020-01-23 06:00:00 5.1 0 Calma 4 Sudoeste 0 -- -- 100
2020-01-23 05:00:00 5.4 3 Oeste 4 Sudoeste 0 -- -- 100
2020-01-23 04:00:00 5.6 4 Sudeste 14 Sudeste 0 -- -- 100
2020-01-23 03:00:00 5.1 5 Este 9 Este 0 -- -- 99
2020-01-23 02:00:00 5.3 4 Sudoeste 7 Sudeste 0 -- -- 99
2020-01-23 01:00:00 5.1 4 Sudeste 6 Este 0 -- -- 99
2020-01-23 00:00:00 5.6 2 Este 5 Sur 0 -- -- 98
2020-01-22 23:00:00 6.2 2 Sudoeste 6 Oeste 0.2 -- -- 97
2020-01-22 22:00:00 6.5 3 Sudoeste 4 Noroeste 0 -- -- 96
2020-01-22 21:00:00 6.8 0 Calma 5 Noroeste 0 -- -- 95
2020-01-22 20:00:00 7.2 0 Calma 4 Norte 0.6 -- -- 93
2020-01-22 19:00:00 7.9 0 Calma 10 Noroeste 0 -- -- 89
2020-01-22 18:00:00 8.5 5 Noroeste 16 Noroeste 0 -- -- 86
2020-01-22 17:00:00 9 9 Noroeste 13 Norte 0 -- -- 82
2020-01-22 16:00:00 9.2 8 Norte 14 Norte 0 -- -- 79
2020-01-22 15:00:00 9.6 10 Noroeste 15 Noroeste 0 -- -- 79
2020-01-22 14:00:00 8.5 8 Norte 15 Norte 0 -- -- 84
2020-01-22 13:00:00 7.7 7 Noroeste 15 Noroeste 0 -- -- 88
2020-01-22 12:00:00 6.4 7 Noroeste 13 Noroeste 0 -- -- 95
2020-01-22 11:00:00 5.2 6 Noroeste 11 Noroeste 0 -- -- 99
2020-01-22 10:00:00 4.1 3 Noroeste 13 Noroeste 0 -- -- 100
2020-01-22 09:00:00 3.5 2 Nordeste 6 Noroeste 0 -- -- 100
2020-01-22 08:00:00 3.4 5 Noroeste 8 Noroeste 0 -- -- 100
2020-01-22 07:00:00 3.5 4 Noroeste 10 Noroeste 0 -- -- 100
2020-01-22 06:00:00 3.4 5 Noroeste 12 Norte 0 -- -- 100
2020-01-22 05:00:00 3.4 7 Norte 17 Norte 0 -- -- 100
2020-01-22 04:00:00 3.3 12 Noroeste 26 Noroeste 1 -- -- 99
2020-01-22 03:00:00 3.1 6 Noroeste 14 Noroeste 1.8 -- -- 99
2020-01-22 02:00:00 3.1 3 Noroeste 12 Noroeste 1 -- -- 97
2020-01-22 01:00:00 3.1 9 Noroeste 19 Norte 0 -- -- 96
2020-01-22 00:00:00 2.8 11 Noroeste 21 Noroeste 0 -- -- 96
2020-01-21 23:00:00 2.8 9 Norte 16 Norte 0 -- -- 96
2020-01-21 22:00:00 2.9 12 Noroeste 22 Noroeste 0 -- -- 96
2020-01-21 21:00:00 3.3 9 Norte 30 Noroeste 0 -- -- 95
2020-01-21 20:00:00 3.3 16 Noroeste 32 Noroeste 0 -- -- 95
2020-01-21 19:00:00 3.5 21 Noroeste 33 Noroeste 0 -- -- 96
2020-01-21 18:00:00 3.8 14 Noroeste 32 Noroeste 0 -- -- 94
2020-01-21 17:00:00 3.8 16 Noroeste 31 Noroeste 0 -- -- 96
2020-01-21 16:00:00 3.7 15 Norte 32 Noroeste 0 -- -- 97
2020-01-21 15:00:00 3.6 18 Noroeste 28 Norte 1.8 -- -- 98
2020-01-21 14:00:00 3.2 14 Noroeste 31 Noroeste 2.4 -- -- 98
2020-01-21 13:00:00 3.2 19 Noroeste 33 Noroeste 1.4 -- -- 97
2020-01-21 12:00:00 3.4 12 Norte 30 Norte 0.8 -- -- 96
2020-01-21 11:00:00 3.2 18 Noroeste 32 Norte 0.2 -- -- 93
2020-01-21 10:00:00 3.1 19 Noroeste 36 Noroeste 0 -- -- 93
2020-01-21 09:00:00 2.3 18 Noroeste 35 Noroeste 0.4 -- -- 92
2020-01-21 08:00:00 2.5 17 Noroeste 26 Noroeste 0.2 -- -- 84
2020-01-21 07:00:00 3.6 11 Norte 37 Noroeste 0 -- -- 70
2020-01-21 06:00:00 3.6 21 Noroeste 41 Noroeste 0 -- -- 69
2020-01-21 05:00:00 2.9 22 Noroeste 35 Norte 0 -- -- 77
2020-01-21 04:00:00 3.5 17 Noroeste 37 Noroeste 0 -- -- 75
2020-01-21 03:00:00 3.3 22 Noroeste 34 Noroeste 0 -- -- 74
2020-01-21 02:00:00 2.9 8 Norte 25 Noroeste 0 -- -- 75
2020-01-21 01:00:00 2.1 11 Noroeste 26 Noroeste 0 -- -- 77
2020-01-21 00:00:00 1.4 13 Noroeste 29 Noroeste 0 -- -- 78
2020-01-20 23:00:00 1.7 15 Noroeste 31 Noroeste 0 -- -- 75
2020-01-20 22:00:00 2.6 21 Noroeste 36 Noroeste 0 -- -- 70
2020-01-20 21:00:00 2.9 22 Noroeste 37 Noroeste 0 -- -- 69
2020-01-20 20:00:00 3.1 26 Noroeste 38 Noroeste 0 -- -- 68
2020-01-20 19:00:00 3.4 22 Noroeste 33 Noroeste 0 -- -- 66
2020-01-20 18:00:00 3.7 17 Noroeste 39 Noroeste 0 -- -- 65
2020-01-20 17:00:00 4.3 26 Noroeste 42 Noroeste 0 -- -- 60
2020-01-20 16:00:00 4.5 25 Noroeste 42 Noroeste 0 -- -- 59
2020-01-20 15:00:00 5 26 Noroeste 49 Noroeste 0 -- -- 60
2020-01-20 14:00:00 4.6 28 Noroeste 46 Noroeste 0 -- -- 58
2020-01-20 13:00:00 4.7 28 Noroeste 42 Noroeste 0 -- -- 61
2020-01-20 12:00:00 3.7 26 Noroeste 45 Noroeste 0 -- -- 61
2020-01-20 11:00:00 3.1 26 Noroeste 42 Noroeste 0 -- -- 62
2020-01-20 10:00:00 1.5 29 Noroeste 44 Noroeste 0 -- -- 69
2020-01-20 09:00:00 1.1 25 Noroeste 46 Noroeste 0 -- -- 70
2020-01-20 08:00:00 1.1 28 Noroeste 44 Noroeste 0 -- -- 70
2020-01-20 07:00:00 1.1 28 Noroeste 46 Noroeste 0 -- -- 71
2020-01-20 06:00:00 1.3 28 Noroeste 45 Noroeste 0 -- -- 70
2020-01-20 05:00:00 1.4 30 Noroeste 49 Noroeste 0 -- -- 70
2020-01-20 04:00:00 1.7 30 Noroeste 50 Noroeste 0 -- -- 69
2020-01-20 03:00:00 2 32 Noroeste 52 Noroeste 0 -- -- 68
2020-01-20 02:00:00 2.4 32 Noroeste 52 Noroeste 0 -- -- 67
2020-01-20 01:00:00 2.5 27 Noroeste 47 Noroeste 0 -- -- 67
2020-01-20 00:00:00 2.8 30 Noroeste 51 Noroeste 0 -- -- 66
2020-01-19 23:00:00 3.1 27 Noroeste 49 Noroeste 0 -- -- 64
2020-01-19 22:00:00 3.9 34 Noroeste 52 Noroeste 0 -- -- 60
2020-01-19 21:00:00 4.1 33 Noroeste 53 Noroeste 0 -- -- 61
2020-01-19 20:00:00 4.2 31 Noroeste 47 Noroeste 0 -- -- 62
2020-01-19 19:00:00 4.8 27 Noroeste 53 Noroeste 0 -- -- 62
2020-01-19 18:00:00 5.4 31 Norte 54 Norte 0 -- -- 58
2020-01-19 17:00:00 6.7 36 Norte 60 Norte 0 -- -- 52
2020-01-19 16:00:00 7.4 39 Norte 64 Norte 0 -- -- 53
2020-01-19 15:00:00 8.1 35 Norte 62 Norte 0 -- -- 55
2020-01-19 14:00:00 8.3 35 Norte 57 Noroeste 0 -- -- 59
2020-01-19 13:00:00 8.2 37 Noroeste 64 Noroeste 0 -- -- 62
2020-01-19 12:00:00 8 37 Noroeste 69 Noroeste 0 -- -- 66
2020-01-19 11:00:00 6.6 33 Noroeste 62 Noroeste 0 -- -- 74
2020-01-19 10:00:00 6.5 39 Noroeste 58 Norte 0 -- -- 75
2020-01-19 09:00:00 6.2 29 Noroeste 46 Noroeste 0.2 -- -- 83
2020-01-19 08:00:00 6.4 27 Noroeste 40 Norte 0 -- -- 87
2020-01-19 07:00:00 6.2 26 Noroeste 41 Noroeste 0 -- -- 98
2020-01-19 06:00:00 5.5 15 Noroeste 30 Noroeste 0.6 -- -- 100
2020-01-19 05:00:00 5.1 18 Noroeste 27 Noroeste 0.2 -- -- 100
2020-01-19 04:00:00 5 13 Noroeste 22 Noroeste 1 -- -- 100
2020-01-19 03:00:00 5.1 8 Norte 17 Norte 1 -- -- 100
2020-01-19 02:00:00 5.1 7 Noroeste 14 Noroeste 1.4 -- -- 100
2020-01-19 01:00:00 5.2 6 Norte 10 Norte 0.4 -- -- 99
2020-01-19 00:00:00 5.2 6 Norte 20 Noroeste 0 -- -- 98
2020-01-18 23:00:00 5.5 15 Noroeste 31 Noroeste 1.2 -- -- 97
2020-01-18 22:00:00 5.8 26 Norte 48 Norte 1 -- -- 94
2020-01-18 21:00:00 7.2 21 Sudeste 36 Sudeste 2.2 -- -- 92
2020-01-18 20:00:00 8.1 22 Sudeste 33 Sudeste 0 -- -- 84
2020-01-18 19:00:00 9 23 Sudeste 35 Sudeste 0 -- -- 80
2020-01-18 18:00:00 10.1 17 Sudeste 34 Sudeste 0 -- -- 69
2020-01-18 17:00:00 10.9 24 Sudeste 35 Sudeste 0 -- -- 66
2020-01-18 16:00:00 11.4 23 Sudeste 37 Sudeste 0 -- -- 66
2020-01-18 15:00:00 12.4 18 Sudeste 37 Sudeste 0 -- -- 62
2020-01-18 14:00:00 11.3 26 Sudeste 35 Sudeste 0 -- -- 65
2020-01-18 13:00:00 10.3 24 Sudeste 38 Sudeste 0 -- -- 68
2020-01-18 12:00:00 7.7 21 Sudeste 30 Este 0 -- -- 76
2020-01-18 11:00:00 5.5 17 Sudeste 24 Sudeste 0 -- -- 92
2020-01-18 10:00:00 3 5 Este 13 Este 0 -- -- 100
2020-01-18 09:00:00 2.2 8 Este 12 Este 0 -- -- 100
2020-01-18 08:00:00 0.9 3 Sur 11 Sudoeste 0 -- -- 100
2020-01-18 07:00:00 0.6 3 Sudeste 8 Norte 0 -- -- 100
2020-01-18 06:00:00 1 2 Nordeste 4 Sudeste 0 -- -- 100
2020-01-18 05:00:00 0.7 2 Este 7 Sudoeste 0 -- -- 100
2020-01-18 04:00:00 0.3 0 Calma 5 Nordeste 0 -- -- 99
2020-01-18 03:00:00 -0.4 0 Calma 4 Sudeste 0 -- -- 98
2020-01-18 02:00:00 -2 0 Calma 4 Sudeste 0 -- -- 97
2020-01-18 01:00:00 -1.4 3 Sur 5 Sur 0 -- -- 96
2020-01-18 00:00:00 -0.6 0 Calma 7 Sur 0 -- -- 94
2020-01-17 23:00:00 0.3 5 Sudoeste 6 Sudoeste 0 -- -- 91
2020-01-17 22:00:00 2 4 Sudoeste 9 Sur 0 -- -- 89
2020-01-17 21:00:00 3.9 2 Sudoeste 9 Noroeste 0 -- -- 85
2020-01-17 20:00:00 5.8 8 Noroeste 17 Noroeste 0 -- -- 80
2020-01-17 19:00:00 7.2 9 Norte 18 Noroeste 0 -- -- 75
2020-01-17 18:00:00 7.7 10 Norte 22 Norte 0 -- -- 74
2020-01-17 17:00:00 10.2 13 Norte 27 Nordeste 0 -- -- 67
2020-01-17 16:00:00 11.9 18 Norte 34 Norte 0 -- -- 61
2020-01-17 15:00:00 13.2 18 Norte 29 Norte 0 -- -- 59
2020-01-17 14:00:00 12.7 17 Norte 32 Norte 0 -- -- 62
2020-01-17 13:00:00 11.1 6 Noroeste 20 Noroeste 0 -- -- 72
2020-01-17 12:00:00 12.3 3 Norte 10 Nordeste 0 -- -- 70
2020-01-17 11:00:00 8.9 4 Noroeste 12 Oeste 0 -- -- 82
2020-01-17 10:00:00 6.4 9 Oeste 17 Noroeste 0 -- -- 91
2020-01-17 09:00:00 4 4 Noroeste 12 Noroeste 0 -- -- 95
2020-01-17 08:00:00 3.9 0 Calma 13 Oeste 0 -- -- 93
2020-01-17 07:00:00 5.6 4 Este 12 Norte 0 -- -- 89
2020-01-17 06:00:00 6.2 3 Este 15 Sur 0 -- -- 85
2020-01-17 05:00:00 8.2 13 Sur 22 Sur 0 -- -- 80
2020-01-17 04:00:00 7.2 13 Sur 23 Sudoeste 0 -- -- 85
2020-01-17 03:00:00 6.8 12 Sudoeste 19 Sur 0 -- -- 85
2020-01-17 02:00:00 8.5 3 Este 11 Nordeste 0 -- -- 85
2020-01-17 01:00:00 9.2 10 Sudeste 26 Sudeste 0 -- -- 79
2020-01-17 00:00:00 9.2 15 Sudeste 22 Sudeste 0 -- -- 79
2020-01-16 23:00:00 9.6 8 Sudeste 24 Sudeste 0 -- -- 78
2020-01-16 22:00:00 9.1 13 Sudeste 27 Sudeste 0 -- -- 80
2020-01-16 21:00:00 8.9 15 Sudeste 27 Sudeste 0 -- -- 79
2020-01-16 20:00:00 9 22 Sudeste 32 Sudeste 0 -- -- 80
2020-01-16 19:00:00 9.4 17 Sudeste 28 Sudeste 0 -- -- 77
2020-01-16 18:00:00 10.6 14 Sudeste 33 Sudeste 0 -- -- 72
2020-01-16 17:00:00 11.9 21 Sudeste 39 Sudeste 0 -- -- 68
2020-01-16 16:00:00 13.2 24 Sudeste 36 Sudeste 0 -- -- 66
2020-01-16 15:00:00 12.6 24 Sudeste 39 Sudeste 0 -- -- 66
2020-01-16 14:00:00 12.8 24 Sudeste 40 Sudeste 0 -- -- 67
2020-01-16 13:00:00 10.8 24 Sudeste 34 Sudeste 0 -- -- 74
2020-01-16 12:00:00 9.9 27 Sudeste 36 Sudeste 0 -- -- 77
2020-01-16 11:00:00 6.1 12 Sudeste 31 Sudeste 0 -- -- 88
2020-01-16 10:00:00 5.1 9 Sudeste 19 Sudeste 0 -- -- 93
2020-01-16 09:00:00 3.5 6 Sur 33 Sudeste 0 -- -- 95
2020-01-16 08:00:00 2.9 23 Sudeste 33 Sudeste 0 -- -- 97
2020-01-16 07:00:00 2.6 17 Sudeste 30 Sudeste 0 -- -- 98
2020-01-16 06:00:00 2.3 10 Sudeste 21 Sudeste 0 -- -- 99
2020-01-16 05:00:00 2.6 8 Sudeste 21 Sudeste 0 -- -- 99
2020-01-16 04:00:00 1.6 7 Sudeste 15 Sudeste 0 -- -- 98
2020-01-16 03:00:00 2.3 3 Este 16 Sudeste 0 -- -- 97
2020-01-16 02:00:00 2.8 12 Sudeste 20 Sudeste 0 -- -- 99
2020-01-16 01:00:00 2.4 16 Sudeste 21 Sudeste 0 -- -- 100
2020-01-16 00:00:00 -0.9 6 Sudeste 10 Sudeste 0 -- -- 100
2020-01-15 23:00:00 -0.9 3 Sur 6 Este 0 -- -- 98
2020-01-15 22:00:00 -0.5 0 Calma 10 Sudoeste 0 -- -- 97
2020-01-15 21:00:00 0.8 3 Nordeste 9 Norte 0 -- -- 97
2020-01-15 20:00:00 1.5 4 Sudoeste 11 Sudoeste 0 -- -- 93
2020-01-15 19:00:00 3.1 4 Oeste 8 Sudoeste 0 -- -- 90
2020-01-15 18:00:00 7.2 3 Norte 11 Norte 0 -- -- 80
2020-01-15 17:00:00 9.6 4 Noroeste 23 Sur 0 -- -- 72
2020-01-15 16:00:00 10.3 14 Sudeste 25 Sudeste 0 -- -- 69
2020-01-15 15:00:00 10 17 Sudeste 31 Sudeste 0 -- -- 72
2020-01-15 14:00:00 9.4 18 Sudeste 31 Sudeste 0 -- -- 72
2020-01-15 13:00:00 6.9 24 Sudeste 33 Sudeste 0 -- -- 78
2020-01-15 12:00:00 4.9 20 Sur 36 Sudeste 0 -- -- 82
2020-01-15 11:00:00 3.7 18 Sudeste 30 Sudeste 0 -- -- 85
2020-01-15 10:00:00 3 10 Sudeste 24 Sudeste 0 -- -- 90
2020-01-15 09:00:00 1.9 10 Sudeste 26 Este 0 -- -- 90
2020-01-15 08:00:00 2.1 21 Sudeste 35 Sudeste 0 -- -- 90
2020-01-15 07:00:00 2.6 21 Sudeste 34 Sur 0 -- -- 89
2020-01-15 06:00:00 3.4 15 Sudeste 28 Sudeste 0 -- -- 87
2020-01-15 05:00:00 3.1 19 Sudeste 30 Sudeste 0 -- -- 85
2020-01-15 04:00:00 3.1 17 Sudeste 37 Sudoeste 0 -- -- 86
2020-01-15 03:00:00 2.5 7 Sudeste 27 Sur 0 -- -- 95
2020-01-15 02:00:00 2.3 9 Sudeste 30 Sudeste 0 -- -- 93
2020-01-15 01:00:00 2 13 Sudeste 31 Sudeste 0 -- -- 100
2020-01-15 00:00:00 0.8 15 Sudeste 23 Sudeste 0 -- -- 100
2020-01-14 23:00:00 -0.3 3 Este 6 Este 0 -- -- 100
2020-01-14 22:00:00 -0.2 0 Calma 5 Este 0 -- -- 100
2020-01-14 21:00:00 -0.1 0 Calma 4 Norte 0 -- -- 100
2020-01-14 20:00:00 0.2 2 Noroeste 5 Noroeste 0 -- -- 100
2020-01-14 19:00:00 0.3 0 Calma 4 Norte 0 -- -- 100
2020-01-14 18:00:00 0.2 2 Nordeste 8 Sur 0 -- -- 100
2020-01-14 17:00:00 0.3 3 Sur 8 Sur 0 -- -- 100
2020-01-14 16:00:00 0.1 2 Este 6 Noroeste 0 -- -- 100
2020-01-14 15:00:00 -- -- -- -- -- -- -- -- --
2020-01-14 14:00:00 -0.1 4 Norte 8 Noroeste 0 -- -- 100
2020-01-14 13:00:00 -0.3 0 Calma 0 Calma 0 -- -- 100
2020-01-14 12:00:00 -0.3 0 Calma 6 Nordeste 0 -- -- 100
2020-01-14 11:00:00 -0.7 4 Este 8 Este 0.4 -- -- 100
2020-01-14 10:00:00 -- -- -- -- -- -- -- -- --
2020-01-14 09:00:00 -- -- -- -- -- -- -- -- --
2020-01-14 08:00:00 -- -- -- -- -- -- -- -- --
2020-01-14 07:00:00 -- -- -- -- -- -- -- -- --
2020-01-14 06:00:00 -- -- -- -- -- -- -- -- --
2020-01-14 05:00:00 -- -- -- -- -- -- -- -- --
2020-01-14 04:00:00 -- -- -- -- -- -- -- -- --
2020-01-14 03:00:00 -- -- -- -- -- -- -- -- --
2020-01-14 02:00:00 -- -- -- -- -- -- -- -- --
2020-01-14 01:00:00 -- -- -- -- -- -- -- -- --
2020-01-14 00:00:00 -- -- -- -- -- -- -- -- --
2020-01-13 23:00:00 -- -- -- -- -- -- -- -- --
2020-01-13 22:00:00 -- -- -- -- -- -- -- -- --
2020-01-13 21:00:00 -- -- -- -- -- -- -- -- --
2020-01-13 20:00:00 -- -- -- -- -- -- -- -- --
2020-01-13 19:00:00 -- -- -- -- -- -- -- -- --
2020-01-13 18:00:00 -- -- -- -- -- -- -- -- --
2020-01-13 17:00:00 -- -- -- -- -- -- -- -- --
2020-01-13 16:00:00 -- -- -- -- -- -- -- -- --
2020-01-13 15:00:00 -- -- -- -- -- -- -- -- --
2020-01-13 14:00:00 -- -- -- -- -- -- -- -- --
2020-01-13 13:00:00 -- -- -- -- -- -- -- -- --
2020-01-13 12:00:00 -- -- -- -- -- -- -- -- --
2020-01-13 11:00:00 -- -- -- -- -- -- -- -- --
2020-01-13 10:00:00 -- -- -- -- -- -- -- -- --
2020-01-13 09:00:00 -- -- -- -- -- -- -- -- --
2020-01-13 08:00:00 -- -- -- -- -- -- -- -- --
2020-01-13 07:00:00 -- -- -- -- -- -- -- -- --
2020-01-13 06:00:00 -- -- -- -- -- -- -- -- --
2020-01-13 05:00:00 -- -- -- -- -- -- -- -- --
2020-01-13 04:00:00 -- -- -- -- -- -- -- -- --
2020-01-13 03:00:00 -- -- -- -- -- -- -- -- --
2020-01-13 02:00:00 -- -- -- -- -- -- -- -- --
2020-01-13 01:00:00 -- -- -- -- -- -- -- -- --
2020-01-13 00:00:00 -- -- -- -- -- -- -- -- --
2020-01-12 23:00:00 -- -- -- -- -- -- -- -- --
2020-01-12 22:00:00 -- -- -- -- -- -- -- -- --
2020-01-12 21:00:00 -- -- -- -- -- -- -- -- --
2020-01-12 20:00:00 -- -- -- -- -- -- -- -- --
2020-01-12 19:00:00 -- -- -- -- -- -- -- -- --
2020-01-12 18:00:00 -- -- -- -- -- -- -- -- --
2020-01-12 17:00:00 -- -- -- -- -- -- -- -- --
2020-01-12 16:00:00 -- -- -- -- -- -- -- -- --
2020-01-12 15:00:00 -- -- -- -- -- -- -- -- --
2020-01-12 14:00:00 -- -- -- -- -- -- -- -- --
2020-01-12 13:00:00 -- -- -- -- -- -- -- -- --
2020-01-12 12:00:00 -- -- -- -- -- -- -- -- --
2020-01-12 11:00:00 -- -- -- -- -- -- -- -- --
2020-01-12 10:00:00 -- -- -- -- -- -- -- -- --
2020-01-12 09:00:00 -- -- -- -- -- -- -- -- --
2020-01-12 08:00:00 -- -- -- -- -- -- -- -- --
2020-01-12 07:00:00 -- -- -- -- -- -- -- -- --
2020-01-12 06:00:00 -- -- -- -- -- -- -- -- --
2020-01-12 05:00:00 -- -- -- -- -- -- -- -- --
2020-01-12 04:00:00 -- -- -- -- -- -- -- -- --
2020-01-12 03:00:00 -- -- -- -- -- -- -- -- --
2020-01-12 02:00:00 -- -- -- -- -- -- -- -- --
2020-01-12 01:00:00 -- -- -- -- -- -- -- -- --
2020-01-12 00:00:00 -2.5 3 Sudoeste 5 Sur 0 -- -- 96
2020-01-11 23:00:00 -1.7 4 Oeste 6 Sudoeste 0 -- -- 96
2020-01-11 22:00:00 -0.9 0 Calma 5 Sudoeste 0 -- -- 94
2020-01-11 21:00:00 0.6 0 Calma 8 Sur 0 -- -- 93
2020-01-11 20:00:00 1.5 5 Sudoeste 8 Sudoeste 0 -- -- 85
2020-01-11 19:00:00 4.6 6 Oeste 14 Noroeste 0 -- -- 74
2020-01-11 18:00:00 9.2 9 Noroeste 12 Noroeste 0 -- -- 63
2020-01-11 17:00:00 11.5 7 Noroeste 18 Noroeste 0 -- -- 58
2020-01-11 16:00:00 11.9 13 Noroeste 24 Norte 0 -- -- 54
2020-01-11 15:00:00 12 13 Noroeste 24 Norte 0 -- -- 55
2020-01-11 14:00:00 11.5 14 Norte 26 Norte 0 -- -- 54
2020-01-11 13:00:00 10.7 18 Noroeste 28 Noroeste 0 -- -- 58
2020-01-11 12:00:00 9.2 11 Noroeste 20 Noroeste 0 -- -- 71
2020-01-11 11:00:00 6.4 10 Noroeste 20 Noroeste 0 -- -- 84
2020-01-11 10:00:00 3.9 12 Noroeste 23 Noroeste 0 -- -- 96
2020-01-11 09:00:00 1.4 12 Noroeste 18 Noroeste 0 -- -- 98
2020-01-11 08:00:00 0.9 6 Noroeste 15 Noroeste 0 -- -- 96
2020-01-11 07:00:00 1.4 10 Noroeste 17 Noroeste 0 -- -- 96
2020-01-11 06:00:00 2.1 12 Noroeste 18 Noroeste 0 -- -- 96
2020-01-11 05:00:00 2.9 12 Noroeste 18 Norte 0 -- -- 95
2020-01-11 04:00:00 3.1 5 Norte 20 Noroeste 0 -- -- 92
2020-01-11 03:00:00 3.6 11 Noroeste 24 Noroeste 0 -- -- 93
2020-01-11 02:00:00 4.4 15 Noroeste 24 Noroeste 0 -- -- 91
2020-01-11 01:00:00 5 14 Noroeste 26 Noroeste 0 -- -- 88
2020-01-11 00:00:00 5.1 2 Norte 20 Noroeste 0 -- -- 85
2020-01-10 23:00:00 6.5 19 Noroeste 32 Noroeste 0 -- -- 82
2020-01-10 22:00:00 6.2 19 Norte 28 Norte 0 -- -- 85
2020-01-10 21:00:00 6.6 14 Noroeste 26 Noroeste 0 -- -- 82
2020-01-10 20:00:00 7.3 5 Oeste 24 Noroeste 0 -- -- 77
2020-01-10 19:00:00 8.3 18 Noroeste 29 Noroeste 0 -- -- 77
2020-01-10 18:00:00 8.8 14 Noroeste 33 Noroeste 0 -- -- 75
2020-01-10 17:00:00 10.6 20 Noroeste 32 Noroeste 0 -- -- 69
2020-01-10 16:00:00 10.6 15 Noroeste 36 Noroeste 0 -- -- 70
2020-01-10 15:00:00 10.8 24 Noroeste 39 Noroeste 0 -- -- 68
2020-01-10 14:00:00 10 26 Noroeste 41 Noroeste 0 -- -- 70
2020-01-10 13:00:00 10.2 22 Noroeste 39 Noroeste 0 -- -- 67
2020-01-10 12:00:00 9.6 26 Noroeste 39 Noroeste 0 -- -- 70
2020-01-10 11:00:00 7.8 13 Noroeste 23 Noroeste 0 -- -- 84
2020-01-10 10:00:00 5.7 9 Noroeste 23 Noroeste 0 -- -- 92
2020-01-10 09:00:00 4.3 14 Noroeste 21 Noroeste 0 -- -- 96
2020-01-10 08:00:00 4.4 13 Noroeste 24 Noroeste 0 -- -- 96
2020-01-10 07:00:00 4.3 13 Noroeste 20 Noroeste 0 -- -- 99
2020-01-10 06:00:00 4.1 14 Noroeste 24 Noroeste 0 -- -- 100
2020-01-10 05:00:00 4.1 9 Noroeste 18 Noroeste 0 -- -- 100
2020-01-10 04:00:00 4.9 11 Noroeste 20 Noroeste 0 -- -- 100
2020-01-10 03:00:00 4.5 7 Noroeste 13 Noroeste 0 -- -- 100
2020-01-10 02:00:00 4.3 8 Noroeste 20 Norte 0 -- -- 100
2020-01-10 01:00:00 4 5 Norte 9 Norte 0 -- -- 100
2020-01-10 00:00:00 3.8 2 Norte 14 Noroeste 0 -- -- 100
2020-01-09 23:00:00 3.3 7 Noroeste 11 Noroeste 0 -- -- 100
2020-01-09 22:00:00 3 0 Calma 5 Sudeste 0 -- -- 100
2020-01-09 21:00:00 2.8 2 Sur 6 Sudoeste 0 -- -- 99
2020-01-09 20:00:00 3.5 3 Noroeste 17 Noroeste 0 -- -- 98
2020-01-09 19:00:00 3.5 8 Noroeste 15 Noroeste 0 -- -- 99
2020-01-09 18:00:00 3.4 3 Norte 12 Sudeste 0 -- -- 98
2020-01-09 17:00:00 3.6 6 Sudeste 14 Sur 0 -- -- 98
2020-01-09 16:00:00 3.5 3 Sudoeste 10 Sudeste 0 -- -- 98
2020-01-09 15:00:00 3.4 3 Sur 10 Sur 0 -- -- 99
2020-01-09 14:00:00 3.3 8 Sur 13 Sudeste 0 -- -- 100
2020-01-09 13:00:00 3.2 5 Sur 17 Sudeste 0 -- -- 100
2020-01-09 12:00:00 3.2 7 Sudeste 10 Este 0 -- -- 100
2020-01-09 11:00:00 2.8 5 Sudeste 8 Sudeste 0 -- -- 100
2020-01-09 10:00:00 2.3 4 Sudeste 8 Sur 0 -- -- 100
2020-01-09 09:00:00 2.5 3 Sudeste 6 Noroeste 0 -- -- 100
2020-01-09 08:00:00 2.1 4 Oeste 6 Oeste 0 -- -- 100
2020-01-09 07:00:00 2.1 0 Calma 4 Sudeste 0 -- -- 100
2020-01-09 06:00:00 2.2 4 Sudeste 7 Sudeste 0 -- -- 100
2020-01-09 05:00:00 2.3 4 Sudeste 6 Sudeste 0 -- -- 100
2020-01-09 04:00:00 2.1 0 Calma 3 Norte 0 -- -- 100
2020-01-09 03:00:00 2.2 2 Noroeste 6 Oeste 0 -- -- 100
2020-01-09 02:00:00 2.5 2 Sudoeste 7 Sudoeste 0.2 -- -- 100
2020-01-09 01:00:00 2.6 4 Sudoeste 6 Sur 0 -- -- 100
2020-01-09 00:00:00 2.8 3 Sudoeste 10 Sur 0 -- -- 100
2020-01-08 23:00:00 2.9 6 Sudeste 13 Sudeste 0 -- -- 100
2020-01-08 22:00:00 2.8 8 Sudeste 13 Sur 0 -- -- 100
2020-01-08 21:00:00 2.8 5 Sudeste 12 Sudeste 0 -- -- 100
2020-01-08 20:00:00 2.8 8 Sudeste 12 Este 0 -- -- 100
2020-01-08 19:00:00 3.1 6 Sudeste 11 Sudeste 0 -- -- 100
2020-01-08 18:00:00 3.3 6 Sudeste 13 Sudeste 0 -- -- 99
2020-01-08 17:00:00 4 5 Sudeste 12 Sudeste 0 -- -- 98
2020-01-08 16:00:00 4.4 6 Sudeste 11 Sudeste 0 -- -- 98
2020-01-08 15:00:00 4.4 6 Sudeste 12 Sudeste 0 -- -- 99
2020-01-08 14:00:00 4.2 7 Sudeste 15 Sudeste 0 -- -- 100
2020-01-08 13:00:00 3.4 8 Este 13 Este 0 -- -- 100
2020-01-08 12:00:00 2.6 7 Sudeste 12 Sudeste 0 -- -- 100
2020-01-08 11:00:00 1.4 4 Este 8 Este 0 -- -- 100
2020-01-08 10:00:00 0.1 4 Sudeste 10 Sudeste 0 -- -- 100
2020-01-08 09:00:00 -0.8 5 Sudeste 12 Sudeste 0 -- -- 99
2020-01-08 08:00:00 -1.5 2 Sudoeste 5 Nordeste 0 -- -- 99
2020-01-08 07:00:00 -0.9 0 Calma 6 Nordeste 0 -- -- 99
2020-01-08 06:00:00 -0.5 3 Nordeste 6 Nordeste 0 -- -- 97
2020-01-08 05:00:00 1.1 2 Oeste 10 Noroeste 0 -- -- 93
2020-01-08 04:00:00 4.2 3 Este 11 Oeste 0 -- -- 93
2020-01-08 03:00:00 3.2 2 Nordeste 9 Norte 0 -- -- 97
2020-01-08 02:00:00 2.5 4 Nordeste 10 Noroeste 0 -- -- 98
2020-01-08 01:00:00 2.3 3 Este 9 Norte 0 -- -- 98
2020-01-08 00:00:00 3.9 0 Calma 13 Norte 0 -- -- 97
2020-01-07 23:00:00 3.9 5 Nordeste 11 Noroeste 0 -- -- 100
2020-01-07 22:00:00 0.3 0 Calma 7 Sudoeste 0 -- -- 99
2020-01-07 21:00:00 0.5 3 Sur 5 Sudoeste 0 -- -- 97
2020-01-07 20:00:00 0.9 2 Sudoeste 3 Sudoeste 0 -- -- 94
2020-01-07 19:00:00 2.8 0 Calma 5 Nordeste 0 -- -- 93
2020-01-07 18:00:00 4.9 3 Nordeste 4 Nordeste 0 -- -- 87
2020-01-07 17:00:00 6.8 0 Calma 8 Este 0 -- -- 81
2020-01-07 16:00:00 6.1 5 Nordeste 8 Nordeste 0 -- -- 85
2020-01-07 15:00:00 4.9 3 Nordeste 9 Este 0 -- -- 100
2020-01-07 14:00:00 3.2 3 Este 8 Nordeste 0 -- -- 100
2020-01-07 13:00:00 1.3 3 Sur 5 Sudeste 0 -- -- 100
2020-01-07 12:00:00 0.1 2 Nordeste 8 Sudeste 0 -- -- 100
2020-01-07 11:00:00 -0.5 4 Este 8 Sudoeste 0 -- -- 100
2020-01-07 10:00:00 -1.7 2 Sudoeste 6 Sudoeste 0 -- -- 100
2020-01-07 09:00:00 -3.2 0 Calma 8 Sudoeste 0 -- -- 100
2020-01-07 08:00:00 -4 4 Sudoeste 7 Sudoeste 0 -- -- 100
2020-01-07 07:00:00 -3.5 0 Calma 5 Sudoeste 0 -- -- 100
2020-01-07 06:00:00 -2.4 0 Calma 5 Sudoeste 0 -- -- 100
2020-01-07 05:00:00 -1.3 3 Sudoeste 13 Noroeste 0 -- -- 100
2020-01-07 04:00:00 0 12 Oeste 16 Oeste 0 -- -- 100
2020-01-07 03:00:00 -1.6 10 Noroeste 14 Noroeste 0 -- -- 100
2020-01-07 02:00:00 -1.7 3 Norte 8 Norte 0 -- -- 100
2020-01-07 01:00:00 -0.4 0 Calma 7 Noroeste 0 -- -- 100
2020-01-07 00:00:00 0 0 Calma 10 Sudoeste 0 -- -- 100
2020-01-06 23:00:00 0.9 7 Oeste 17 Oeste 0 -- -- 100
2020-01-06 22:00:00 1.2 7 Noroeste 12 Norte 0 -- -- 100
2020-01-06 21:00:00 1.4 4 Oeste 9 Noroeste 0 -- -- 100
2020-01-06 20:00:00 1.4 3 Noroeste 14 Noroeste 0 -- -- 100
2020-01-06 19:00:00 1.4 5 Noroeste 12 Noroeste 0 -- -- 99
2020-01-06 18:00:00 1.5 4 Norte 9 Noroeste 0 -- -- 98
2020-01-06 17:00:00 2 0 Calma 6 Oeste 0 -- -- 96
2020-01-06 16:00:00 2.1 0 Calma 7 Noroeste 0 -- -- 97
2020-01-06 15:00:00 1.9 3 Noroeste 9 Norte 0 -- -- 100
2020-01-06 14:00:00 1.8 5 Norte 10 Norte 0 -- -- 100
2020-01-06 13:00:00 1.8 4 Noroeste 10 Noroeste 0 -- -- 100
2020-01-06 12:00:00 1.7 2 Noroeste 7 Noroeste 0 -- -- 100
2020-01-06 11:00:00 1.5 3 Nordeste 5 Noroeste 0 -- -- 100
2020-01-06 10:00:00 1.5 2 Oeste 6 Oeste 0 -- -- 100